ADDS METAR Data INFO
IDs: Format: Raw Decoded Include TAF

Data at: 0900 UTC 20 Oct 2017

PAHL 200856Z AUTO 12007KT 6SM -SN BR OVC022 M07/M09 A2931 RMK AO2 SLP935 P0000 60001 T10721089 410561150 56005 FZRANO
PAHL 200756Z AUTO 12006KT 4SM -SN BR OVC020 M07/M09 A2931 RMK AO2 SLP935 P0000 T10721089 FZRANO
PAHL 200734Z AUTO 12006KT 4SM -SN BR BKN016 OVC023 M07/M09 A2931 RMK AO2 P0000 FZRANO
PAHL 200713Z AUTO 13005KT 3SM -SN BR OVC014 M07/M09 A2931 RMK AO2 P0000 FZRANO
PAHL 200656Z AUTO 14006KT 2SM -SN BR OVC014 M07/M08 A2931 RMK AO2 SLP936 P0001 T10721083 FZRANO
PAHL 200556Z AUTO 13006KT 1 1/2SM -SN BR OVC014 M07/M08 A2932 RMK AO2 SLP939 P0000 60000 T10671083 11056 21072 56009 FZRANO
PAHL 200537Z AUTO 13004KT 1 1/4SM -SN BR BKN014 OVC021 M07/M08 A2932 RMK AO2 P0000 FZRANO
PAHL 200529Z AUTO 12004KT 1SM -SN BR BKN012 OVC023 M07/M08 A2933 RMK AO2 P0000 FZRANO
PAHL 200524Z AUTO 13003KT 1 1/4SM -SN BR SCT012 OVC023 M07/M08 A2933 RMK AO2 P0000 FZRANO
PAHL 200456Z AUTO 14005KT 2 1/2SM -SN BR SCT017 OVC023 M07/M08 A2933 RMK AO2 VIS 1 1/2V3 SLP942 P0000 T10671083 FZRANO
PAHL 200434Z AUTO 12006KT 3SM -SN BR OVC015 M07/M09 A2933 RMK AO2 P0000 FZRANO
PAHL 200428Z AUTO 12006KT 2SM -SN BR BKN013 OVC021 M07/M09 A2933 RMK AO2 VIS 1 3/4V4 P0000 FZRANO
PAHL 200421Z AUTO 12005KT 1 3/4SM -SN BR BKN013 OVC021 M07/M09 A2933 RMK AO2 P0000 FZRANO
PAHL 200405Z AUTO 13006KT 1 1/2SM -SN OVC023 M07/M09 A2934 RMK AO2 P0000 FZRANO
PAHL 200356Z AUTO 14006KT 2 1/2SM -SN BKN023 OVC034 M07/M09 A2934 RMK AO2 VIS 1 1/2V3 SLP945 P0000 T10671094 FZRANO
PAHL 200353Z AUTO 13007KT 2 1/2SM -SN BKN023 OVC034 M07/M09 A2934 RMK AO2 VIS 1 1/2V3 P0000 FZRANO
PAHL 200335Z AUTO 13005KT 3SM -SN SCT025 OVC034 M06/M10 A2934 RMK AO2 P0000 FZRANO
PAHL 200256Z AUTO 14005KT 7SM -SN SCT024 BKN029 OVC040 M06/M11 A2935 RMK AO2 SNB00 SLP948 P0000 60000 T10611106 56013 FZRANO
PAHL 200156Z AUTO 16005KT 10SM OVC042 M06/M11 A2936 RMK AO2 SNB13E32 SLP951 P0000 T10611111 FZRANO
PAHL 200056Z AUTO 14007KT 9SM SCT024 OVC034 M06/M11 A2937 RMK AO2 SNB31E53 SLP955 P0000 T10611111 FZRANO
PAHL 200049Z AUTO 15008KT 9SM -SN SCT022 BKN027 OVC036 M06/M12 A2937 RMK AO2 SNB31 P0000 FZRANO
PAHL 192356Z AUTO 16007KT 10SM OVC034 M06/M12 A2939 RMK AO2 SLP962 T10611122 11056 21150 57017 FZRANO
PAHL 192256Z AUTO 17007KT 10SM CLR M06/M12 A2941 RMK AO2 SLP967 T10611122 FZRANO
PAHL 192156Z AUTO 17004KT 10SM CLR M07/M12 A2942 RMK AO2 SLP974 T10671122 FZRANO
PAHL 192056Z AUTO 21004KT 10SM CLR M08/M12 A2944 RMK AO2 SLP980 T10831122 55004 FZRANO
PAHL 191956Z AUTO 16005KT 10SM CLR M09/M12 A2944 RMK AO2 SLP978 T10941122 FZRANO
PAHL 191856Z AUTO 00000KT 10SM CLR M12/M14 A2945 RMK AO2 SLP982 T11221139 FZRANO
PAHL 191756Z AUTO 21003KT 10SM CLR M15/M17 A2945 RMK AO2 SLP984 T11501167 11111 21150 58004 FZRANO
PAHL 191656Z AUTO 24003KT 10SM CLR M14/M16 A2946 RMK AO2 SLP985 T11391156 FZRANO
PAHL 191556Z AUTO 23003KT 10SM CLR M14/M16 A2946 RMK AO2 SLP987 T11391156 FZRANO
PAHL 191456Z AUTO 25004KT 10SM CLR M13/M15 A2946 RMK AO2 SLP987 T11331150 58002 FZRANO
PAHL 191356Z AUTO 25003KT 10SM CLR M13/M15 A2947 RMK AO2 SLP988 T11331150 FZRANO
PAHL 191256Z AUTO 26004KT 10SM FEW036 M13/M14 A2947 RMK AO2 SLP990 T11281144 FZRANO
PAHL 191156Z AUTO 29003KT 10SM OVC034 M11/M14 A2947 RMK AO2 SLP989 60000 T11111139 11094 21111 51002 FZRANO
PAHL 191056Z AUTO 29004KT 10SM OVC032 M10/M13 A2947 RMK AO2 SLP989 T11001133 FZRANO
PAHL 190956Z AUTO VRB04KT 10SM OVC032 M09/M13 A2947 RMK AO2 SNB10E32 SLP989 P0000 T10941128 FZRANO
PAHL 190856Z AUTO 30006KT 10SM OVC032 M09/M13 A2946 RMK AO2 SLP987 T10941128 410171106 53005 FZRANO
PAHL 190756Z AUTO 31004KT 10SM OVC032 M10/M13 A2946 RMK AO2 SLP985 T11001128 FZRANO
PAHL 190656Z AUTO 30004KT 10SM OVC032 M10/M13 A2945 RMK AO2 SLP984 T11001128 FZRANO
PAHL 190556Z AUTO 31004KT 10SM FEW032 M09/M12 A2945 RMK AO2 SLP982 T10941122 11022 21094 51005 FZRANO
PAHL 190456Z AUTO 30005KT 10SM CLR M09/M12 A2945 RMK AO2 SLP981 T10891117 FZRANO
PAHL 190356Z AUTO 30005KT 10SM CLR M08/M12 A2944 RMK AO2 SLP980 T10781117 FZRANO
PAHL 190256Z AUTO 31005KT 10SM CLR M06/M11 A2944 RMK AO2 SLP977 T10611111 53005 FZRANO
PAHL 190156Z AUTO 30007KT 10SM CLR M04/M11 A2942 RMK AO2 SLP973 T10391106 FZRANO
PAHL 190056Z AUTO 31008KT 10SM CLR M03/M11 A2942 RMK AO2 SLP971 T10281106 FZRANO
PAHL 182356Z AUTO 32005KT 10SM CLR M02/M09 A2942 RMK AO2 SLP972 T10221094 11017 21061 50000 FZRANO
PAHL 182256Z AUTO 31007KT 10SM CLR M02/M09 A2942 RMK AO2 SLP972 T10221089 FZRANO
PAHL 182156Z AUTO 31005KT 10SM CLR M02/M07 A2942 RMK AO2 SLP972 T10221072 FZRANO